Time;durP1;ratioP1;P1;durP2;ratioP2;P2;SDS_P1;SDS_P2;PMS_P1;PMS_P2;Temp;Humidity;BMP_temperature;BMP_pressure;BME280_temperature;BME280_humidity;BME280_pressure;Samples;Min_cycle;Max_cycle;Signal;HPM_P1;HPM_P2
2023/12/30 00:01:53;;;;;;;1999.90;999.90;;;7.50;99.90;;;;;;5035364;28;20021;-69
2023/12/30 00:04:19;;;;;;;1999.90;999.90;;;7.50;99.90;;;;;;5034801;28;20033;-69
2023/12/30 00:06:45;;;;;;;1999.90;999.90;;;7.50;99.90;;;;;;5027028;28;20048;-70
2023/12/30 00:09:10;;;;;;;1999.90;999.90;;;7.50;99.90;;;;;;5029719;28;20060;-69
2023/12/30 00:11:36;;;;;;;1999.90;999.90;;;7.50;99.90;;;;;;5033458;28;20026;-69
2023/12/30 00:14:02;;;;;;;1999.90;999.90;;;7.50;99.90;;;;;;5029838;28;20028;-69
2023/12/30 00:16:29;;;;;;;1999.90;999.90;;;7.60;99.90;;;;;;5033296;28;20120;-69
2023/12/30 00:18:54;;;;;;;;;;;7.60;99.90;;;;;;5030930;28;20087;-69
2023/12/30 00:21:21;;;;;;;1999.90;999.90;;;7.60;99.90;;;;;;5030324;28;19914;-69
2023/12/30 00:23:47;;;;;;;1999.90;999.90;;;7.60;99.90;;;;;;5030481;28;20344;-70
2023/12/30 00:26:26;;;;;;;1999.90;999.90;;;7.60;99.90;;;;;;5034462;28;20072;-69
2023/12/30 00:28:53;;;;;;;1999.90;999.90;;;7.50;99.90;;;;;;5032019;28;20025;-69
2023/12/30 00:31:29;;;;;;;1999.90;999.90;;;7.40;99.90;;;;;;5036195;28;20507;-69
2023/12/30 00:33:59;;;;;;;1999.90;999.90;;;7.50;99.90;;;;;;5035426;28;20079;-69
2023/12/30 00:36:26;;;;;;;1999.90;999.90;;;7.40;99.90;;;;;;5037246;28;20036;-70
2023/12/30 00:38:54;;;;;;;1999.90;999.90;;;7.50;99.90;;;;;;5037281;28;20151;-70
2023/12/30 00:41:23;;;;;;;1999.90;999.90;;;7.50;99.90;;;;;;5037031;28;20336;-69
2023/12/30 00:43:49;;;;;;;1999.90;999.90;;;7.50;99.90;;;;;;5036298;28;20021;-71
2023/12/30 00:46:17;;;;;;;1999.90;999.90;;;7.40;99.90;;;;;;5035798;28;20134;-69
2023/12/30 00:48:42;;;;;;;1999.90;999.90;;;7.40;99.90;;;;;;5036394;28;20022;-69
2023/12/30 00:51:08;;;;;;;1999.90;999.90;;;7.30;99.90;;;;;;5034035;28;20083;-70
2023/12/30 00:53:34;;;;;;;1999.90;999.90;;;7.20;99.90;;;;;;5033702;28;21198;-70
2023/12/30 00:55:59;;;;;;;1999.90;999.90;;;7.10;99.90;;;;;;5031733;28;20444;-70
2023/12/30 00:58:25;;;;;;;1999.90;999.90;;;7.10;99.90;;;;;;5040977;28;20067;-69
2023/12/30 01:00:51;;;;;;;1999.90;999.90;;;7.10;99.90;;;;;;5032632;28;20025;-69
2023/12/30 01:03:17;;;;;;;1999.90;999.90;;;7.10;99.90;;;;;;5036358;28;20079;-69
2023/12/30 01:05:46;;;;;;;1999.90;999.90;;;7.10;99.90;;;;;;5035694;28;20266;-70
2023/12/30 01:08:12;;;;;;;1999.90;999.90;;;7.10;99.90;;;;;;5033501;28;20471;-69
2023/12/30 01:10:38;;;;;;;1999.90;999.90;;;7.20;99.90;;;;;;5036858;28;20060;-70
2023/12/30 01:13:07;;;;;;;1999.90;999.90;;;7.20;99.90;;;;;;5034807;28;20033;-69
2023/12/30 01:15:33;;;;;;;1999.90;999.90;;;7.20;99.90;;;;;;5036045;28;20128;-69
2023/12/30 01:17:59;;;;;;;1999.90;999.90;;;7.10;99.90;;;;;;5027796;28;20490;-69
2023/12/30 01:20:24;;;;;;;1999.90;999.90;;;7.10;99.90;;;;;;5025669;28;20054;-69
2023/12/30 01:22:50;;;;;;;1999.90;999.90;;;7.10;99.90;;;;;;5029662;28;20030;-69
2023/12/30 01:25:16;;;;;;;1999.90;999.90;;;7.00;99.90;;;;;;5035177;28;20029;-69
2023/12/30 01:27:41;;;;;;;1999.90;999.90;;;6.90;99.90;;;;;;5034579;28;20034;-70
2023/12/30 01:30:08;;;;;;;1999.90;999.90;;;6.90;99.90;;;;;;5036971;28;20294;-70
2023/12/30 01:32:33;;;;;;;1999.90;999.90;;;6.80;99.90;;;;;;5030120;28;20529;-70
2023/12/30 01:34:59;;;;;;;1999.90;999.90;;;6.80;99.90;;;;;;5030946;28;20037;-69
2023/12/30 01:37:25;;;;;;;1999.90;999.90;;;6.80;99.90;;;;;;5030009;28;20029;-70
2023/12/30 01:39:51;;;;;;;1999.90;999.90;;;6.80;99.90;;;;;;5035870;28;20424;-69
2023/12/30 01:42:17;;;;;;;1999.90;999.90;;;6.70;99.90;;;;;;5035746;28;20056;-69
2023/12/30 01:44:42;;;;;;;1999.90;999.90;;;6.60;99.90;;;;;;5037643;28;20030;-69
2023/12/30 01:47:08;;;;;;;1999.90;999.90;;;6.70;99.90;;;;;;5033326;28;20025;-69
2023/12/30 01:49:35;;;;;;;1999.90;999.90;;;6.70;99.90;;;;;;5034236;28;20025;-70
2023/12/30 01:52:01;;;;;;;;;;;6.70;99.90;;;;;;5031715;28;20076;-69
2023/12/30 01:54:27;;;;;;;1999.90;999.90;;;6.70;99.90;;;;;;5031841;28;19909;-70
2023/12/30 01:56:53;;;;;;;1999.90;999.90;;;6.70;99.90;;;;;;5031908;28;20439;-69
2023/12/30 01:59:21;;;;;;;1999.90;999.90;;;6.60;99.90;;;;;;5032516;28;20030;-69
2023/12/30 02:01:47;;;;;;;1999.90;999.90;;;6.60;99.90;;;;;;5030272;28;20424;-69
2023/12/30 02:04:13;;;;;;;1999.90;999.90;;;6.60;99.90;;;;;;5039064;28;20117;-69
2023/12/30 02:06:39;;;;;;;1999.90;999.90;;;6.60;99.90;;;;;;5032901;28;20148;-69
2023/12/30 02:09:06;;;;;;;1999.90;999.90;;;6.60;99.90;;;;;;5029878;28;20040;-69
2023/12/30 02:11:32;;;;;;;1999.90;999.90;;;6.50;99.90;;;;;;5032571;28;20029;-69
2023/12/30 02:13:58;;;;;;;1999.90;999.90;;;6.50;99.90;;;;;;5030479;28;20437;-69
2023/12/30 02:16:23;;;;;;;1999.90;999.90;;;6.60;99.90;;;;;;5030043;28;20119;-70
2023/12/30 02:18:49;;;;;;;1999.90;999.90;;;6.60;99.90;;;;;;5029400;28;20057;-69
2023/12/30 02:21:15;;;;;;;1999.90;999.90;;;6.60;99.90;;;;;;5033501;28;20025;-69
2023/12/30 02:23:41;;;;;;;1999.90;999.90;;;6.70;99.90;;;;;;5038155;28;20037;-69
2023/12/30 02:26:10;;;;;;;1999.90;999.90;;;6.70;99.90;;;;;;5030851;28;20022;-69
2023/12/30 02:28:35;;;;;;;1999.90;999.90;;;6.60;99.90;;;;;;5033415;28;20033;-70
2023/12/30 02:31:03;;;;;;;1999.90;999.90;;;6.60;99.90;;;;;;5030662;28;20037;-69
2023/12/30 02:33:29;;;;;;;1999.90;999.90;;;6.50;99.90;;;;;;5040656;28;20037;-70
2023/12/30 02:35:55;;;;;;;1999.90;999.90;;;6.50;99.90;;;;;;5030025;28;20030;-69
2023/12/30 02:38:20;;;;;;;1999.90;999.90;;;6.50;99.90;;;;;;5032481;28;20033;-69
2023/12/30 02:40:46;;;;;;;1999.90;999.90;;;6.50;99.90;;;;;;5027092;28;20093;-69
2023/12/30 02:43:12;;;;;;;1999.90;999.90;;;6.40;99.90;;;;;;5023436;28;20433;-69
2023/12/30 02:45:38;;;;;;;1999.90;999.90;;;6.40;99.90;;;;;;5032378;28;20409;-69
2023/12/30 02:48:04;;;;;;;1999.90;999.90;;;6.40;99.90;;;;;;5037715;28;20293;-69
2023/12/30 02:50:30;;;;;;;1999.90;999.90;;;6.30;99.90;;;;;;5037417;28;20388;-70
2023/12/30 02:52:55;;;;;;;1999.90;999.90;;;6.30;99.90;;;;;;5028683;28;20061;-69
2023/12/30 02:55:21;;;;;;;1999.90;999.90;;;6.20;99.90;;;;;;5035321;28;20091;-70
2023/12/30 02:57:47;;;;;;;1999.90;999.90;;;6.20;99.90;;;;;;5033726;28;20036;-70
2023/12/30 03:00:13;;;;;;;1999.90;999.90;;;6.20;99.90;;;;;;5030761;28;20025;-70
2023/12/30 03:02:38;;;;;;;1999.90;999.90;;;6.20;99.90;;;;;;5033145;28;20436;-69
2023/12/30 03:05:05;;;;;;;1999.90;999.90;;;6.20;99.90;;;;;;5034489;28;20112;-70
2023/12/30 03:07:31;;;;;;;1999.90;999.90;;;6.20;99.90;;;;;;5030181;28;20052;-70
2023/12/30 03:09:57;;;;;;;1999.90;999.90;;;6.20;99.90;;;;;;5022284;28;20029;-70
2023/12/30 03:12:23;;;;;;;1999.90;999.90;;;6.20;99.90;;;;;;5034096;28;20487;-69
2023/12/30 03:14:48;;;;;;;1999.90;999.90;;;6.30;99.90;;;;;;5025108;28;20048;-70
2023/12/30 03:17:14;;;;;;;1999.90;999.90;;;6.30;99.90;;;;;;5030596;28;20038;-70
2023/12/30 03:19:40;;;;;;;1999.90;999.90;;;6.30;99.90;;;;;;5030513;28;20055;-69
2023/12/30 03:22:06;;;;;;;1999.90;999.90;;;6.30;99.90;;;;;;5034130;28;20056;-69
2023/12/30 03:24:32;;;;;;;1999.90;999.90;;;6.40;99.90;;;;;;5032235;28;20431;-69
2023/12/30 03:26:58;;;;;;;1999.90;999.90;;;6.40;99.90;;;;;;5027267;28;20025;-69
2023/12/30 03:29:24;;;;;;;1999.90;999.90;;;6.40;99.90;;;;;;5032478;28;20021;-69
2023/12/30 03:31:51;;;;;;;1999.90;999.90;;;6.40;99.90;;;;;;5030185;28;20030;-69
2023/12/30 03:34:17;;;;;;;1999.90;999.90;;;6.40;99.90;;;;;;5032340;28;20033;-70
2023/12/30 03:36:43;;;;;;;1999.90;999.90;;;6.40;99.90;;;;;;5038877;28;20363;-70
2023/12/30 03:39:09;;;;;;;1999.90;999.90;;;6.40;99.90;;;;;;5029024;28;20025;-69
2023/12/30 03:41:34;;;;;;;1999.90;999.90;;;6.40;99.90;;;;;;5032964;28;20053;-70
2023/12/30 03:44:01;;;;;;;1999.90;999.90;;;6.40;99.90;;;;;;5033044;28;20045;-69
2023/12/30 03:46:27;;;;;;;1999.90;999.90;;;6.50;99.90;;;;;;5033298;28;20060;-69
2023/12/30 03:48:52;;;;;;;1999.90;999.90;;;6.50;99.90;;;;;;5033316;28;20435;-69
2023/12/30 03:51:18;;;;;;;1999.90;999.90;;;6.40;99.90;;;;;;5031596;28;20029;-69
2023/12/30 03:53:44;;;;;;;1999.90;999.90;;;6.40;99.90;;;;;;5029626;28;20378;-69
2023/12/30 03:56:11;;;;;;;1999.90;999.90;;;6.40;99.90;;;;;;5028674;28;20116;-69
2023/12/30 03:58:37;;;;;;;1999.90;999.90;;;6.50;99.90;;;;;;5029426;28;20025;-69
2023/12/30 04:01:03;;;;;;;1999.90;999.90;;;6.40;99.90;;;;;;5032131;28;20060;-69
2023/12/30 04:03:29;;;;;;;1999.90;999.90;;;6.40;99.90;;;;;;5033202;28;20321;-69
2023/12/30 04:05:54;;;;;;;1999.90;999.90;;;6.40;99.90;;;;;;5033120;28;20037;-69
2023/12/30 04:08:20;;;;;;;1999.90;999.90;;;6.40;99.90;;;;;;5031324;28;20037;-69
2023/12/30 04:10:46;;;;;;;1999.90;999.90;;;6.30;99.90;;;;;;5033138;28;20104;-70
2023/12/30 04:13:12;;;;;;;1999.90;999.90;;;6.30;99.90;;;;;;5032989;28;20029;-69
2023/12/30 04:15:37;;;;;;;1999.90;999.90;;;6.30;99.90;;;;;;5033283;28;20467;-69
2023/12/30 04:18:03;;;;;;;1999.90;999.90;;;6.20;99.90;;;;;;5030090;28;20033;-70
2023/12/30 04:20:29;;;;;;;1999.90;999.90;;;6.20;99.90;;;;;;5033240;28;20021;-70
2023/12/30 04:22:56;;;;;;;1999.90;999.90;;;6.20;99.90;;;;;;5033054;28;20033;-70
2023/12/30 04:25:22;;;;;;;1999.90;999.90;;;6.10;99.90;;;;;;5031607;28;20056;-69
2023/12/30 04:27:49;;;;;;;1999.90;999.90;;;6.10;99.90;;;;;;5032023;28;20029;-69
2023/12/30 04:30:14;;;;;;;1999.90;999.90;;;6.00;99.90;;;;;;5032150;28;20030;-70
2023/12/30 04:32:40;;;;;;;1999.90;999.90;;;6.00;99.90;;;;;;5032326;28;20033;-69
2023/12/30 04:35:07;;;;;;;1999.90;999.90;;;6.00;99.90;;;;;;5032291;28;20032;-69
2023/12/30 04:37:32;;;;;;;1999.90;999.90;;;5.90;99.90;;;;;;5031065;28;20021;-70
2023/12/30 04:39:58;;;;;;;1999.90;999.90;;;5.80;99.90;;;;;;5032934;28;20107;-70
2023/12/30 04:42:24;;;;;;;1999.90;999.90;;;5.90;99.90;;;;;;5032390;28;20045;-70
2023/12/30 04:44:49;;;;;;;1999.90;999.90;;;5.80;99.90;;;;;;5031813;28;20096;-69
2023/12/30 04:47:15;;;;;;;1999.90;999.90;;;5.70;99.90;;;;;;5032223;28;20527;-69
2023/12/30 04:49:41;;;;;;;1999.90;999.90;;;5.70;99.90;;;;;;5028850;28;20080;-70
2023/12/30 04:52:08;;;;;;;;;;;5.70;99.90;;;;;;5027465;28;20045;-69
2023/12/30 04:54:33;;;;;;;1999.90;999.90;;;5.70;99.90;;;;;;5024835;28;20321;-69
2023/12/30 04:56:59;;;;;;;1999.90;999.90;;;5.70;99.90;;;;;;5031684;28;20057;-69
2023/12/30 04:59:26;;;;;;;1999.90;999.90;;;5.80;99.90;;;;;;5026521;28;20043;-70
2023/12/30 05:01:52;;;;;;;1999.90;999.90;;;5.70;99.90;;;;;;5028443;28;20100;-69
2023/12/30 05:04:18;;;;;;;1999.90;999.90;;;5.80;99.90;;;;;;5030087;28;20133;-69
2023/12/30 05:06:43;;;;;;;1999.90;999.90;;;5.80;99.90;;;;;;5032437;28;20085;-69
2023/12/30 05:09:12;;;;;;;1999.90;999.90;;;5.80;99.90;;;;;;5034133;28;20030;-69
2023/12/30 05:11:43;;;;;;;1999.90;999.90;;;5.80;99.90;;;;;;5031215;28;20392;-69
2023/12/30 05:14:08;;;;;;;1999.90;999.90;;;5.80;99.90;;;;;;5033599;28;20367;-70
2023/12/30 05:16:44;;;;;;;1999.90;999.90;;;5.70;99.90;;;;;;5036149;28;20033;-69
2023/12/30 05:19:11;;;;;;;1999.90;999.90;;;5.70;99.90;;;;;;5026454;28;20036;-69
2023/12/30 05:21:36;;;;;;;1999.90;999.90;;;5.70;99.90;;;;;;5033151;28;20033;-70
2023/12/30 05:24:02;;;;;;;1999.90;999.90;;;5.80;99.90;;;;;;5031229;28;20025;-69
2023/12/30 05:26:28;;;;;;;1999.90;999.90;;;5.80;99.90;;;;;;5034184;28;20075;-69
2023/12/30 05:28:55;;;;;;;1999.90;999.90;;;5.80;99.90;;;;;;5029799;28;20259;-69
2023/12/30 05:31:21;;;;;;;1999.90;999.90;;;5.70;99.90;;;;;;5034853;28;20420;-69
2023/12/30 05:33:47;;;;;;;1999.90;999.90;;;5.70;99.90;;;;;;5038095;28;20038;-69
2023/12/30 05:36:13;;;;;;;1999.90;999.90;;;5.70;99.90;;;;;;5034847;28;20037;-69
2023/12/30 05:38:38;;;;;;;1999.90;999.90;;;5.70;99.90;;;;;;5029616;28;20045;-70
2023/12/30 05:41:04;;;;;;;1999.90;999.90;;;5.70;99.90;;;;;;5035844;28;20101;-70
2023/12/30 05:43:31;;;;;;;1999.90;999.90;;;5.80;99.90;;;;;;5031697;28;20047;-69
2023/12/30 05:45:56;;;;;;;1999.90;999.90;;;5.70;99.90;;;;;;5035054;28;20478;-69
2023/12/30 05:48:22;;;;;;;1999.90;999.90;;;5.70;99.90;;;;;;5035939;28;20042;-69
2023/12/30 05:50:48;;;;;;;1999.90;999.90;;;5.70;99.90;;;;;;5035058;28;20436;-70
2023/12/30 05:53:13;;;;;;;1999.90;999.90;;;5.70;99.90;;;;;;5035995;28;20037;-70
2023/12/30 05:55:39;;;;;;;1999.90;999.90;;;5.70;99.90;;;;;;5035062;28;20111;-70
2023/12/30 05:58:05;;;;;;;1999.90;999.90;;;5.80;99.90;;;;;;5031504;28;20129;-69
2023/12/30 06:00:30;;;;;;;1999.90;999.90;;;5.80;99.90;;;;;;5044457;28;20037;-70
2023/12/30 06:02:56;;;;;;;1999.90;999.90;;;5.80;99.90;;;;;;5032658;28;20021;-69
2023/12/30 06:05:22;;;;;;;1999.90;999.90;;;5.70;99.90;;;;;;5031961;28;20029;-69
2023/12/30 06:07:47;;;;;;;1999.90;999.90;;;5.80;99.90;;;;;;5038785;28;20143;-70
2023/12/30 06:10:13;;;;;;;1999.90;999.90;;;5.70;99.90;;;;;;5037978;28;20340;-70
2023/12/30 06:12:39;;;;;;;1999.90;999.90;;;5.70;99.90;;;;;;5036933;28;20044;-69
2023/12/30 06:15:06;;;;;;;1999.90;999.90;;;5.60;99.90;;;;;;5032515;28;20341;-70
2023/12/30 06:17:31;;;;;;;1999.90;999.90;;;5.60;99.90;;;;;;5024764;28;20263;-69
2023/12/30 06:19:57;;;;;;;1999.90;999.90;;;5.70;99.90;;;;;;5031587;28;20336;-69
2023/12/30 06:22:23;;;;;;;1999.90;999.90;;;5.70;99.90;;;;;;5034530;28;20044;-69
2023/12/30 06:24:49;;;;;;;1999.90;999.90;;;5.70;99.90;;;;;;5023458;28;20033;-69
2023/12/30 06:27:14;;;;;;;1999.90;999.90;;;5.70;99.90;;;;;;5030028;28;20022;-69
2023/12/30 06:29:40;;;;;;;1999.90;999.90;;;5.60;99.90;;;;;;5035925;28;20061;-70
2023/12/30 06:32:06;;;;;;;1999.90;999.90;;;5.70;99.90;;;;;;5028574;28;20029;-69
2023/12/30 06:34:34;;;;;;;1999.90;999.90;;;5.70;99.90;;;;;;5034205;28;20022;-69
2023/12/30 06:37:00;;;;;;;1999.90;999.90;;;5.70;99.90;;;;;;5031537;28;20037;-69
2023/12/30 06:39:25;;;;;;;1999.90;999.90;;;5.70;99.90;;;;;;5029403;28;20056;-69
2023/12/30 06:41:51;;;;;;;1999.90;999.90;;;5.60;99.90;;;;;;5032465;28;20038;-69
2023/12/30 06:44:17;;;;;;;1999.90;999.90;;;5.60;99.90;;;;;;5023436;28;20021;-69
2023/12/30 06:46:43;;;;;;;1999.90;999.90;;;5.70;99.90;;;;;;5028078;28;20088;-70
2023/12/30 06:49:08;;;;;;;1999.90;999.90;;;5.60;99.90;;;;;;5021176;28;20036;-69
2023/12/30 06:51:34;;;;;;;1999.90;999.90;;;5.60;99.90;;;;;;5029423;28;20022;-69
2023/12/30 06:54:00;;;;;;;1999.90;999.90;;;5.60;99.90;;;;;;5031634;28;20029;-69
2023/12/30 06:56:26;;;;;;;1999.90;999.90;;;5.60;99.90;;;;;;5031375;28;20067;-70
2023/12/30 06:58:52;;;;;;;1999.90;999.90;;;5.70;99.90;;;;;;5032662;28;20419;-70
2023/12/30 07:01:19;;;;;;;1999.90;999.90;;;5.60;99.90;;;;;;5027105;28;20104;-70
2023/12/30 07:03:45;;;;;;;1999.90;999.90;;;5.60;99.90;;;;;;5032563;28;20025;-70
2023/12/30 07:06:11;;;;;;;1999.90;999.90;;;5.60;99.90;;;;;;5032690;28;20079;-69
2023/12/30 07:08:36;;;;;;;1999.90;999.90;;;5.60;99.90;;;;;;5032350;28;20056;-70
2023/12/30 07:11:02;;;;;;;1999.90;999.90;;;5.60;99.90;;;;;;5030251;28;20030;-69
2023/12/30 07:13:28;;;;;;;1999.90;999.90;;;5.60;99.90;;;;;;5033088;28;20025;-70
2023/12/30 07:15:53;;;;;;;1999.90;999.90;;;5.50;99.90;;;;;;5028833;28;20053;-69
2023/12/30 07:18:19;;;;;;;1999.90;999.90;;;5.50;99.90;;;;;;5029511;28;20029;-69
2023/12/30 07:20:45;;;;;;;1999.90;999.90;;;5.50;99.90;;;;;;5026318;28;20099;-69
2023/12/30 07:23:10;;;;;;;1999.90;999.90;;;5.40;99.90;;;;;;5038145;28;20104;-69
2023/12/30 07:25:36;;;;;;;1999.90;999.90;;;5.40;99.90;;;;;;5024918;28;20026;-70
2023/12/30 07:28:02;;;;;;;1999.90;999.90;;;5.30;99.90;;;;;;5028133;28;20022;-70
2023/12/30 07:30:28;;;;;;;1999.90;999.90;;;5.20;99.90;;;;;;5033803;28;20114;-70
2023/12/30 07:32:54;;;;;;;1999.90;999.90;;;5.20;99.90;;;;;;5034251;28;20604;-69
2023/12/30 07:35:20;;;;;;;1999.90;999.90;;;5.10;99.90;;;;;;5034668;28;20040;-69
2023/12/30 07:37:46;;;;;;;1999.90;999.90;;;5.10;99.90;;;;;;5036294;28;20025;-70
2023/12/30 07:40:12;;;;;;;1999.90;999.90;;;5.00;99.90;;;;;;5032738;28;20034;-70
2023/12/30 07:42:39;;;;;;;1999.90;999.90;;;5.00;99.90;;;;;;5027813;28;20042;-70
2023/12/30 07:45:06;;;;;;;1999.90;999.90;;;5.00;99.90;;;;;;5030664;28;20025;-70
2023/12/30 07:47:33;;;;;;;1999.90;999.90;;;5.00;99.90;;;;;;5032775;28;20486;-69
2023/12/30 07:49:58;;;;;;;1999.90;999.90;;;5.00;99.90;;;;;;5033825;28;20041;-70
2023/12/30 07:52:25;;;;;;;1999.90;999.90;;;5.00;99.90;;;;;;5031803;28;20041;-69
2023/12/30 07:54:51;;;;;;;1999.90;999.90;;;5.00;99.90;;;;;;5033602;28;20040;-69
2023/12/30 07:57:17;;;;;;;1999.90;999.90;;;5.10;99.90;;;;;;5036310;28;20037;-69
2023/12/30 07:59:42;;;;;;;1999.90;999.90;;;5.10;99.90;;;;;;5033455;28;20075;-69
2023/12/30 08:02:08;;;;;;;1999.90;999.90;;;5.20;99.90;;;;;;5031885;28;20067;-69
2023/12/30 08:04:34;;;;;;;1999.90;999.90;;;5.30;99.90;;;;;;5029252;28;20018;-70
2023/12/30 08:06:59;;;;;;;1999.90;999.90;;;5.40;99.90;;;;;;5033095;28;20030;-69
2023/12/30 08:09:25;;;;;;;1999.90;999.90;;;5.40;99.90;;;;;;5034520;28;20038;-69
2023/12/30 08:11:51;;;;;;;1999.90;999.90;;;5.50;99.90;;;;;;5028539;28;20424;-69
2023/12/30 08:14:17;;;;;;;1999.90;999.90;;;5.50;99.90;;;;;;5027029;28;20029;-69
2023/12/30 08:16:43;;;;;;;1999.90;999.90;;;5.60;99.90;;;;;;5028056;28;20021;-70
2023/12/30 08:19:09;;;;;;;1999.90;999.90;;;5.60;99.90;;;;;;5024182;28;20033;-69
2023/12/30 08:21:35;;;;;;;1999.90;999.90;;;5.60;99.90;;;;;;5030655;28;20057;-69
2023/12/30 08:24:01;;;;;;;1999.90;999.90;;;5.60;99.90;;;;;;5032448;28;20029;-70
2023/12/30 08:26:27;;;;;;;1999.90;999.90;;;5.60;99.90;;;;;;5033105;28;20460;-70
2023/12/30 08:28:54;;;;;;;1999.90;999.90;;;5.60;99.90;;;;;;5025521;28;20091;-69
2023/12/30 08:31:21;;;;;;;1999.90;999.90;;;5.70;99.90;;;;;;5034072;28;20034;-69
2023/12/30 08:33:47;;;;;;;1999.90;999.90;;;5.70;99.90;;;;;;5028766;28;20425;-69
2023/12/30 08:36:13;;;;;;;1999.90;999.90;;;5.70;99.90;;;;;;5030600;28;20052;-69
2023/12/30 08:38:40;;;;;;;1999.90;999.90;;;5.70;99.90;;;;;;5030793;28;20108;-70
2023/12/30 08:41:10;;;;;;;1999.90;999.90;;;5.70;99.90;;;;;;5029366;28;20053;-70
2023/12/30 08:43:36;;;;;;;1999.90;999.90;;;5.70;99.90;;;;;;5036253;28;20033;-70
2023/12/30 08:46:02;;;;;;;1999.90;999.90;;;5.80;99.90;;;;;;5027639;28;20017;-70
2023/12/30 08:48:27;;;;;;;1999.90;999.90;;;5.90;99.90;;;;;;5030936;28;20374;-70
2023/12/30 08:50:53;;;;;;;1999.90;999.90;;;5.90;99.90;;;;;;5035309;28;20035;-70
2023/12/30 08:53:24;;;;;;;1999.90;999.90;;;6.00;99.90;;;;;;5036279;28;20033;-70
2023/12/30 08:55:51;;;;;;;1999.90;999.90;;;6.00;99.90;;;;;;5041678;28;20024;-69
2023/12/30 08:58:17;;;;;;;1999.90;999.90;;;6.10;99.90;;;;;;5034746;28;20029;-69
2023/12/30 09:00:42;;;;;;;1999.90;999.90;;;6.20;99.90;;;;;;5039428;28;20371;-69
2023/12/30 09:03:08;;;;;;;1999.90;999.90;;;6.20;99.90;;;;;;5032191;28;20302;-69
2023/12/30 09:05:34;;;;;;;1999.90;999.90;;;6.20;99.90;;;;;;5034490;28;20064;-70
2023/12/30 09:08:03;;;;;;;1999.90;999.90;;;6.30;99.90;;;;;;5035189;28;20108;-69
2023/12/30 09:10:30;;;;;;;1999.90;999.90;;;6.30;99.90;;;;;;5032685;28;20164;-69
2023/12/30 09:12:56;;;;;;;1999.90;999.90;;;6.30;99.90;;;;;;5039612;28;20029;-69
2023/12/30 09:15:21;;;;;;;1999.90;999.90;;;6.40;99.90;;;;;;5044459;28;20123;-69
2023/12/30 09:17:47;;;;;;;1999.90;999.90;;;6.50;99.90;;;;;;5036604;28;20338;-69
2023/12/30 09:20:13;;;;;;;1999.90;999.90;;;6.60;99.90;;;;;;5042995;28;20594;-69
2023/12/30 09:22:38;;;;;;;1999.90;999.90;;;6.70;99.90;;;;;;5039082;28;20316;-69
2023/12/30 09:25:05;;;;;;;1999.90;999.90;;;6.70;99.90;;;;;;5038565;28;20037;-69
2023/12/30 09:27:30;;;;;;;1999.90;999.90;;;6.70;99.90;;;;;;5034475;28;20031;-69
2023/12/30 09:29:56;;;;;;;1999.90;999.90;;;6.80;99.90;;;;;;5042428;28;20409;-69
2023/12/30 09:32:23;;;;;;;1999.90;999.90;;;6.80;99.90;;;;;;5032923;28;20332;-69
2023/12/30 09:34:48;;;;;;;;;;;6.80;99.90;;;;;;5035823;28;20029;-69
2023/12/30 09:37:14;;;;;;;1999.90;999.90;;;6.80;99.90;;;;;;5036686;28;19909;-70
2023/12/30 09:39:41;;;;;;;1999.90;999.90;;;6.90;99.90;;;;;;5034124;28;20475;-69
2023/12/30 09:42:06;;;;;;;1999.90;999.90;;;6.90;99.90;;;;;;5034494;28;20049;-69
2023/12/30 09:44:35;;;;;;;1999.90;999.90;;;6.90;99.90;;;;;;5033368;28;20443;-69
2023/12/30 09:47:06;;;;;;;1999.90;999.90;;;6.90;99.90;;;;;;5031784;28;20739;-69
2023/12/30 09:49:37;;;;;;;1999.90;999.90;;;7.00;99.90;;;;;;5039101;28;20103;-69
2023/12/30 09:52:05;;;;;;;1999.90;999.90;;;7.10;99.90;;;;;;5047190;28;20049;-70
2023/12/30 09:54:30;;;;;;;1999.90;999.90;;;7.20;99.90;;;;;;5041504;28;20037;-69
2023/12/30 09:56:59;;;;;;;1999.90;999.90;;;7.20;99.90;;;;;;5030626;28;20103;-69
2023/12/30 09:59:40;;;;;;;1999.90;999.90;;;7.20;99.90;;;;;;5036520;28;20057;-70
2023/12/30 10:02:09;;;;;;;1999.90;999.90;;;7.20;99.90;;;;;;5030435;28;20080;-69
2023/12/30 10:04:36;;;;;;;1999.90;999.90;;;7.30;99.90;;;;;;5033537;28;20025;-69
2023/12/30 10:07:01;;;;;;;1999.90;999.90;;;7.40;99.90;;;;;;5026019;28;20035;-69
2023/12/30 10:09:29;;;;;;;1999.90;999.90;;;7.40;99.90;;;;;;5029392;28;20037;-69
2023/12/30 10:11:55;;;;;;;1999.90;999.90;;;7.50;99.90;;;;;;5031885;28;20084;-69
2023/12/30 10:14:21;;;;;;;1999.90;999.90;;;7.50;99.90;;;;;;5029191;28;20029;-69
2023/12/30 10:16:46;;;;;;;1999.90;999.90;;;7.50;99.90;;;;;;5036459;28;20028;-69
2023/12/30 10:19:16;;;;;;;1999.90;999.90;;;7.50;99.90;;;;;;5040460;28;20029;-69
2023/12/30 10:21:42;;;;;;;1999.90;999.90;;;7.60;99.90;;;;;;5020201;28;20040;-70
2023/12/30 10:24:08;;;;;;;1999.90;999.90;;;7.60;99.90;;;;;;5030199;28;20024;-69
2023/12/30 10:26:37;;;;;;;1999.90;999.90;;;7.60;99.90;;;;;;5021819;28;20076;-69
2023/12/30 10:29:03;;;;;;;1999.90;999.90;;;7.60;99.90;;;;;;5039242;28;20013;-70
2023/12/30 10:31:29;;;;;;;;;;;7.70;99.90;;;;;;5043202;28;20325;-69
2023/12/30 10:33:55;;;;;;;1999.90;999.90;;;7.70;99.90;;;;;;5033384;28;19959;-69
2023/12/30 10:36:22;;;;;;;1999.90;999.90;;;7.70;99.90;;;;;;5049630;28;20489;-70
2023/12/30 10:38:49;;;;;;;1999.90;999.90;;;7.70;99.90;;;;;;5032112;28;21959;-69
2023/12/30 10:41:15;;;;;;;1999.90;999.90;;;7.80;99.90;;;;;;5028220;28;20310;-70
2023/12/30 10:43:40;;;;;;;1999.90;999.90;;;7.80;99.90;;;;;;5033053;28;20034;-69
2023/12/30 10:46:11;;;;;;;1999.90;999.90;;;7.80;99.90;;;;;;5049204;28;20347;-69
2023/12/30 10:49:03;;;;;;;1999.90;999.90;;;7.80;99.90;;;;;;5031198;28;20021;-69
2023/12/30 10:51:32;;;;;;;1999.90;999.90;;;7.80;99.90;;;;;;5027195;28;20036;-69
2023/12/30 10:54:10;;;;;;;1999.90;999.90;;;7.90;99.90;;;;;;5025068;28;20025;-69
2023/12/30 10:56:45;;;;;;;1999.90;999.90;;;7.90;99.90;;;;;;5023907;28;20029;-69
2023/12/30 10:59:12;;;;;;;1999.90;999.90;;;7.90;99.90;;;;;;5023766;28;20066;-69
2023/12/30 11:01:42;;;;;;;1999.90;999.90;;;7.90;99.90;;;;;;5020559;28;20014;-69
2023/12/30 11:04:12;;;;;;;1999.90;999.90;;;7.90;99.90;;;;;;5006170;28;20099;-69
2023/12/30 11:06:55;;;;;;;1999.90;999.90;;;8.00;99.90;;;;;;5011012;28;20581;-69
2023/12/30 11:09:27;;;;;;;1999.90;999.90;;;8.00;99.90;;;;;;5028182;28;20025;-69
2023/12/30 11:11:54;;;;;;;1999.90;999.90;;;8.10;99.90;;;;;;5025698;28;20448;-69
2023/12/30 11:14:20;;;;;;;1999.90;999.90;;;8.10;99.90;;;;;;5027356;28;20017;-70
2023/12/30 11:16:47;;;;;;;1999.90;999.90;;;8.10;99.90;;;;;;5026316;28;20048;-69
2023/12/30 11:19:32;;;;;;;1999.90;999.90;;;8.20;99.90;;;;;;5027177;28;20498;-69
2023/12/30 11:22:00;;;;;;;1999.90;999.90;;;8.20;99.90;;;;;;5032283;28;20372;-69
2023/12/30 11:24:26;;;;;;;1999.90;999.90;;;8.30;99.90;;;;;;5020847;28;20424;-69
2023/12/30 11:26:53;;;;;;;;;;;8.30;99.90;;;;;;5027589;28;20068;-69
2023/12/30 11:29:25;;;;;;;1999.90;999.90;;;8.30;99.90;;;;;;5040712;28;20263;-69
2023/12/30 11:31:52;;;;;;;1999.90;999.90;;;8.40;99.90;;;;;;5044271;28;20438;-69
2023/12/30 11:34:19;;;;;;;1999.90;999.90;;;8.40;99.90;;;;;;5048714;28;20100;-69
2023/12/30 11:36:46;;;;;;;1999.90;999.90;;;8.40;99.90;;;;;;5046494;28;20017;-69
2023/12/30 11:39:27;;;;;;;1999.90;999.90;;;8.40;99.90;;;;;;5039287;28;20124;-69
2023/12/30 11:41:53;;;;;;;1999.90;999.90;;;8.40;99.90;;;;;;5030741;28;20100;-69
2023/12/30 11:44:19;;;;;;;1999.90;999.90;;;8.50;99.90;;;;;;5021190;28;20374;-70
2023/12/30 11:46:47;;;;;;;1999.90;999.90;;;8.50;99.90;;;;;;5035720;28;20025;-69
2023/12/30 11:49:22;;;;;;;1999.90;999.90;;;8.50;99.90;;;;;;5036011;28;20438;-69
2023/12/30 11:51:48;;;;;;;1999.90;999.90;;;8.50;99.90;;;;;;5035751;28;20104;-69
2023/12/30 11:54:14;;;;;;;1999.90;999.90;;;8.50;99.90;;;;;;5021989;28;20382;-69
2023/12/30 11:56:42;;;;;;;1999.90;999.90;;;8.60;99.90;;;;;;5032785;28;20580;-69
2023/12/30 11:59:08;;;;;;;1999.90;999.90;;;8.60;99.90;;;;;;5035061;28;20013;-69
2023/12/30 12:01:35;;;;;;;1999.90;999.90;;;8.60;99.90;;;;;;5031137;28;20029;-70
2023/12/30 12:04:00;;;;;;;;;;;8.60;99.90;;;;;;5033691;28;20033;-69
2023/12/30 12:06:26;;;;;;;1999.90;999.90;;;8.70;99.90;;;;;;5037008;28;19955;-69
2023/12/30 12:08:52;;;;;;;1999.90;999.90;;;8.70;99.90;;;;;;5024485;28;20553;-69